Time;durP1;ratioP1;P1;durP2;ratioP2;P2;SDS_P1;SDS_P2;PMS_P1;PMS_P2;Temp;Humidity;BMP_temperature;BMP_pressure;BME280_temperature;BME280_humidity;BME280_pressure;Samples;Min_cycle;Max_cycle;Signal;HPM_P1;HPM_P2
2021/04/22 07:39:20;;;;;;;5.73;1.50;;;12.50;87.90;;;;;;4657371;23;20236;-68
2021/04/22 07:41:46;;;;;;;6.97;1.43;;;12.10;88.80;;;;;;4944247;28;20220;-68
2021/04/22 07:44:12;;;;;;;3.60;1.10;;;11.90;89.80;;;;;;4959625;28;20232;-69
2021/04/22 07:46:38;;;;;;;4.43;1.50;;;12.10;89.90;;;;;;4954751;28;20227;-69
2021/04/22 07:49:06;;;;;;;3.57;1.30;;;12.20;89.60;;;;;;4955132;28;20215;-72
2021/04/22 07:51:32;;;;;;;10.07;1.30;;;12.30;87.50;;;;;;4955106;28;20547;-77
2021/04/22 07:53:59;;;;;;;5.67;1.60;;;12.10;89.50;;;;;;4955005;28;20208;-68
2021/04/22 07:56:26;;;;;;;2.23;1.10;;;12.50;88.50;;;;;;4958891;28;20223;-69
2021/04/22 07:58:52;;;;;;;6.03;1.90;;;12.70;85.20;;;;;;4935956;29;20213;-69
2021/04/22 08:01:19;;;;;;;3.13;1.20;;;12.40;86.00;;;;;;4935752;29;20325;-68
2021/04/22 08:03:45;;;;;;;8.67;1.37;;;12.60;87.10;;;;;;4935726;29;20295;-68
2021/04/22 08:06:11;;;;;;;7.37;1.37;;;12.70;87.00;;;;;;4935472;29;20730;-67
2021/04/22 08:08:37;;;;;;;4.87;1.30;;;12.40;86.40;;;;;;4935753;29;20667;-70
2021/04/22 08:11:04;;;;;;;3.83;1.03;;;12.90;85.50;;;;;;4935929;29;20209;-68
2021/04/22 08:13:31;;;;;;;3.00;1.30;;;13.10;85.50;;;;;;4935445;29;20304;-69
2021/04/22 08:15:58;;;;;;;3.47;0.83;;;13.70;85.40;;;;;;4936559;29;20723;-69
2021/04/22 08:18:26;;;;;;;4.83;1.40;;;13.30;83.90;;;;;;4936821;29;20217;-70
2021/04/22 08:20:53;;;;;;;3.43;1.10;;;13.60;83.40;;;;;;4936621;29;20675;-69
2021/04/22 08:23:19;;;;;;;3.70;1.50;;;13.50;84.70;;;;;;4936887;29;20336;-69
2021/04/22 08:25:48;;;;;;;4.27;1.10;;;13.70;84.40;;;;;;4936617;29;20252;-71
2021/04/22 08:28:17;;;;;;;5.20;1.40;;;13.70;84.80;;;;;;4936749;29;20205;-69
2021/04/22 08:30:46;;;;;;;6.47;1.53;;;13.80;84.00;;;;;;4936808;29;20212;-69
2021/04/22 08:33:14;;;;;;;7.03;1.37;;;13.60;84.70;;;;;;4957961;28;20218;-70
2021/04/22 08:35:41;;;;;;;2.23;1.10;;;13.60;85.40;;;;;;4960829;28;20236;-69
2021/04/22 08:38:09;;;;;;;3.87;1.30;;;13.70;85.10;;;;;;4935697;29;20205;-69
2021/04/22 08:40:35;;;;;;;3.77;1.10;;;13.60;84.40;;;;;;4936447;29;20220;-68
2021/04/22 08:43:02;;;;;;;2.97;1.20;;;13.00;85.00;;;;;;4935835;29;20243;-69
2021/04/22 08:45:28;;;;;;;5.00;1.13;;;13.30;84.00;;;;;;4936518;29;20240;-69
2021/04/22 08:47:55;;;;;;;6.07;1.37;;;12.90;85.10;;;;;;4936573;29;20212;-69
2021/04/22 08:50:24;;;;;;;2.73;1.07;;;12.20;85.90;;;;;;4936208;29;20213;-68
2021/04/22 08:52:53;;;;;;;5.30;1.30;;;11.90;87.80;;;;;;4936568;29;20212;-68
2021/04/22 08:55:24;;;;;;;5.20;1.17;;;12.50;87.20;;;;;;4935806;29;20261;-68
2021/04/22 08:57:51;;;;;;;6.30;1.50;;;12.40;86.30;;;;;;4935891;29;20220;-69
2021/04/22 09:00:21;;;;;;;6.47;1.20;;;13.00;85.70;;;;;;4936342;29;20236;-69
2021/04/22 09:02:47;;;;;;;5.43;1.07;;;13.50;85.70;;;;;;4935491;29;20228;-73
2021/04/22 09:05:16;;;;;;;7.40;1.77;;;12.80;85.00;;;;;;4936372;29;20209;-67
2021/04/22 09:07:43;;;;;;;5.13;1.20;;;13.20;85.30;;;;;;4948148;28;20231;-66
2021/04/22 09:10:11;;;;;;;5.13;1.40;;;12.50;85.70;;;;;;4954882;28;20213;-68
2021/04/22 09:12:38;;;;;;;5.90;1.40;;;12.70;86.80;;;;;;4955021;28;20211;-68
2021/04/22 09:15:08;;;;;;;5.43;1.33;;;12.80;86.80;;;;;;4955168;28;20259;-68
2021/04/22 09:17:35;;;;;;;1.90;0.93;;;13.10;86.10;;;;;;4955006;28;20208;-69
2021/04/22 09:20:01;;;;;;;9.20;1.17;;;13.40;84.80;;;;;;4955298;28;20212;-68
2021/04/22 09:22:35;;;;;;;4.00;1.47;;;13.60;83.70;;;;;;4954947;28;20211;-68
2021/04/22 09:25:14;;;;;;;4.03;1.47;;;13.70;84.00;;;;;;4955016;28;20218;-68
2021/04/22 09:27:40;;;;;;;3.40;1.17;;;13.50;84.30;;;;;;4954186;28;20204;-68
2021/04/22 09:30:08;;;;;;;5.30;1.27;;;13.20;85.30;;;;;;4954663;28;20267;-67
2021/04/22 09:32:36;;;;;;;3.77;1.23;;;12.90;86.60;;;;;;4960830;28;20199;-68
2021/04/22 09:35:08;;;;;;;5.97;1.30;;;13.10;86.70;;;;;;4973868;28;20301;-69
2021/04/22 09:37:40;;;;;;;3.70;0.93;;;13.20;85.40;;;;;;4951334;28;20208;-66
2021/04/22 09:40:19;;;;;;;7.23;1.33;;;12.80;83.30;;;;;;4931352;29;20631;-67
2021/04/22 09:42:46;;;;;;;3.67;1.03;;;13.00;84.40;;;;;;4933202;29;20238;-69
2021/04/22 09:45:15;;;;;;;5.50;1.30;;;13.10;84.20;;;;;;4935194;29;20220;-70
2021/04/22 09:47:41;;;;;;;2.87;1.13;;;12.80;86.60;;;;;;4935523;29;20212;-69
2021/04/22 09:50:13;;;;;;;7.13;1.30;;;12.80;86.60;;;;;;4939283;29;20205;-67
2021/04/22 09:52:42;;;;;;;4.57;1.30;;;12.10;86.50;;;;;;4939336;29;20208;-71
2021/04/22 09:55:10;;;;;;;5.73;0.93;;;11.60;88.30;;;;;;4939435;29;20208;-68
2021/04/22 09:57:38;;;;;;;5.80;1.00;;;11.10;88.90;;;;;;4938772;29;20212;-67
2021/04/22 10:00:09;;;;;;;7.40;1.50;;;11.10;88.90;;;;;;4938731;29;20209;-69
2021/04/22 10:02:43;;;;;;;2.33;0.90;;;11.50;88.60;;;;;;4939187;29;20208;-71
2021/04/22 10:05:16;;;;;;;4.80;1.13;;;11.30;87.90;;;;;;4939078;29;20208;-68
2021/04/22 10:07:44;;;;;;;3.50;1.13;;;11.60;87.90;;;;;;4938844;29;20220;-68
2021/04/22 10:10:20;;;;;;;3.03;1.00;;;11.60;87.90;;;;;;4939083;29;20215;-68
2021/04/22 10:12:48;;;;;;;4.67;1.40;;;11.20;88.90;;;;;;4939210;29;20217;-67
2021/04/22 10:15:18;;;;;;;4.50;1.40;;;11.00;90.10;;;;;;4939206;29;20219;-67
2021/04/22 10:17:53;;;;;;;3.10;1.40;;;10.90;90.00;;;;;;4939133;29;20267;-67
2021/04/22 10:20:20;;;;;;;6.70;1.60;;;11.10;90.30;;;;;;4938683;29;20204;-67
2021/04/22 10:22:48;;;;;;;3.43;1.10;;;11.30;89.70;;;;;;4938793;29;20208;-68
2021/04/22 10:25:17;;;;;;;4.10;0.90;;;11.30;86.00;;;;;;4938629;29;20205;-67
2021/04/22 10:27:43;;;;;;;4.00;1.20;;;11.40;86.40;;;;;;4951064;28;20216;-68
2021/04/22 10:30:13;;;;;;;3.90;1.23;;;11.40;88.20;;;;;;4958306;28;20540;-67
2021/04/22 10:32:40;;;;;;;4.40;1.33;;;11.50;87.90;;;;;;4964536;28;20208;-67
2021/04/22 10:35:07;;;;;;;4.30;1.10;;;11.50;88.00;;;;;;4977173;28;20207;-68
2021/04/22 10:37:35;;;;;;;5.63;1.70;;;11.30;88.20;;;;;;4954379;28;20216;-68
2021/04/22 10:40:04;;;;;;;4.07;1.37;;;11.30;89.20;;;;;;4938528;29;20217;-67
2021/04/22 10:42:30;;;;;;;2.57;1.37;;;11.30;90.10;;;;;;4938752;29;20213;-68
2021/04/22 10:44:57;;;;;;;5.10;1.17;;;11.60;89.00;;;;;;4938727;29;20247;-69
2021/04/22 10:47:24;;;;;;;4.30;1.30;;;11.70;88.30;;;;;;4938203;29;20232;-68
2021/04/22 10:49:51;;;;;;;5.83;1.20;;;11.60;87.10;;;;;;4938370;29;20726;-68
2021/04/22 10:52:19;;;;;;;5.97;1.50;;;11.60;88.10;;;;;;4938727;29;20223;-67
2021/04/22 10:54:47;;;;;;;3.90;1.23;;;11.50;89.70;;;;;;4934999;29;20648;-68
2021/04/22 10:57:17;;;;;;;3.67;1.27;;;11.50;90.40;;;;;;4937033;29;20247;-68
2021/04/22 10:59:44;;;;;;;4.57;1.10;;;11.80;91.00;;;;;;4937243;29;20209;-68
2021/04/22 11:02:15;;;;;;;5.30;1.90;;;11.90;88.60;;;;;;4936627;29;20236;-68
2021/04/22 11:04:42;;;;;;;5.17;1.47;;;11.80;89.20;;;;;;4936589;29;20631;-67
2021/04/22 11:07:16;;;;;;;4.57;1.23;;;11.90;88.70;;;;;;4936909;29;20225;-67
2021/04/22 11:09:43;;;;;;;5.70;1.27;;;12.20;88.80;;;;;;4936953;29;20205;-67
2021/04/22 11:12:11;;;;;;;2.70;1.30;;;12.00;88.00;;;;;;4936946;29;20217;-68
2021/04/22 11:14:41;;;;;;;7.73;1.50;;;12.20;88.30;;;;;;4936540;29;20208;-69
2021/04/22 11:17:09;;;;;;;8.87;1.67;;;12.40;86.70;;;;;;4936812;29;20243;-70
2021/04/22 11:19:37;;;;;;;2.80;1.40;;;12.50;87.80;;;;;;4938024;29;20224;-68
2021/04/22 11:22:11;;;;;;;5.47;1.50;;;12.40;87.00;;;;;;4938271;29;20259;-68
2021/04/22 11:24:40;;;;;;;6.47;1.10;;;12.30;84.40;;;;;;4937646;29;20233;-66
2021/04/22 11:27:08;;;;;;;6.83;1.83;;;12.30;84.80;;;;;;4937873;29;20268;-68
2021/04/22 11:29:44;;;;;;;6.43;1.47;;;12.30;85.00;;;;;;4937746;29;20208;-66
2021/04/22 11:32:28;;;;;;;3.77;1.20;;;12.30;85.30;;;;;;4937889;29;20671;-68
2021/04/22 11:34:57;;;;;;;7.93;1.60;;;12.20;85.90;;;;;;4938074;29;20219;-69
2021/04/22 11:37:25;;;;;;;7.67;1.40;;;12.30;85.60;;;;;;4937641;29;20291;-68
2021/04/22 11:39:52;;;;;;;6.30;1.70;;;12.40;86.40;;;;;;4937528;29;20272;-67
2021/04/22 11:42:19;;;;;;;4.67;1.50;;;12.40;87.00;;;;;;4937727;29;20208;-66
2021/04/22 11:44:50;;;;;;;5.07;1.20;;;12.30;85.80;;;;;;4937447;29;20762;-66
2021/04/22 11:47:19;;;;;;;2.93;1.40;;;12.20;85.70;;;;;;4937389;29;20715;-67
2021/04/22 11:49:46;;;;;;;4.63;1.57;;;12.40;85.80;;;;;;4937293;29;20209;-66
2021/04/22 11:52:18;;;;;;;3.63;1.60;;;12.50;85.50;;;;;;4937369;29;20217;-66
2021/04/22 11:54:45;;;;;;;8.07;1.77;;;12.40;86.80;;;;;;4937170;29;20236;-67
2021/04/22 11:57:12;;;;;;;6.37;1.60;;;12.50;86.60;;;;;;4937246;29;20700;-66
2021/04/22 11:59:39;;;;;;;2.50;1.57;;;12.40;86.40;;;;;;4937357;29;20256;-68
2021/04/22 12:02:08;;;;;;;3.60;1.57;;;12.50;86.20;;;;;;4937053;29;20205;-66
2021/04/22 12:04:36;;;;;;;5.80;1.47;;;12.60;86.80;;;;;;4937198;29;20236;-67
2021/04/22 12:07:05;;;;;;;5.80;1.27;;;12.70;87.50;;;;;;4936952;29;20600;-66
2021/04/22 12:09:33;;;;;;;3.80;1.37;;;12.80;84.50;;;;;;4937051;29;20205;-67
2021/04/22 12:12:14;;;;;;;4.23;1.50;;;12.90;84.20;;;;;;4936367;29;20272;-67
2021/04/22 12:14:42;;;;;;;6.97;1.40;;;13.00;83.50;;;;;;4937255;29;20243;-67
2021/04/22 12:17:24;;;;;;;3.80;1.70;;;12.80;83.60;;;;;;4936999;29;20233;-66
2021/04/22 12:19:51;;;;;;;4.43;1.50;;;12.80;84.70;;;;;;4936903;29;20215;-67
2021/04/22 12:22:34;;;;;;;6.17;1.63;;;12.90;85.20;;;;;;4937076;29;20209;-67
2021/04/22 12:25:03;;;;;;;2.73;1.33;;;12.90;85.20;;;;;;4936652;29;20296;-67
2021/04/22 12:27:31;;;;;;;6.80;2.23;;;12.80;86.30;;;;;;4936734;29;20273;-66
2021/04/22 12:29:58;;;;;;;5.30;1.90;;;12.60;86.20;;;;;;4936547;29;20572;-67
2021/04/22 12:32:25;;;;;;;7.43;2.10;;;12.70;86.00;;;;;;4936671;29;20620;-67
2021/04/22 12:34:52;;;;;;;5.53;1.67;;;12.50;86.20;;;;;;4936643;29;20216;-67
2021/04/22 12:37:18;;;;;;;6.00;1.80;;;12.60;86.40;;;;;;4936721;29;20636;-67
2021/04/22 12:39:51;;;;;;;7.10;2.20;;;12.60;86.90;;;;;;4936230;29;20228;-67
2021/04/22 12:42:20;;;;;;;3.47;1.50;;;12.80;84.90;;;;;;4936218;29;20205;-67
2021/04/22 12:44:55;;;;;;;5.63;2.00;;;12.40;84.80;;;;;;4936632;29;20260;-66
2021/04/22 12:47:32;;;;;;;4.10;1.80;;;12.60;86.50;;;;;;4936362;29;20232;-66
2021/04/22 12:50:00;;;;;;;5.40;1.87;;;12.90;84.20;;;;;;4936513;29;20579;-66
2021/04/22 12:52:26;;;;;;;6.33;1.67;;;13.00;84.80;;;;;;4936252;29;20208;-66
2021/04/22 12:54:57;;;;;;;3.17;1.67;;;13.10;84.20;;;;;;4936122;29;20676;-67
2021/04/22 12:57:23;;;;;;;3.63;1.30;;;13.10;85.70;;;;;;4936032;29;20224;-67
2021/04/22 12:59:50;;;;;;;5.30;1.50;;;13.20;85.20;;;;;;4936131;29;20664;-66
2021/04/22 13:02:16;;;;;;;5.63;2.20;;;13.20;84.80;;;;;;4936296;29;20212;-67
2021/04/22 13:04:57;;;;;;;5.97;2.23;;;13.10;85.00;;;;;;4936045;29;20734;-67
2021/04/22 13:07:29;;;;;;;4.00;1.40;;;13.20;84.20;;;;;;4935996;29;20237;-67
2021/04/22 13:09:55;;;;;;;7.83;1.90;;;13.20;82.70;;;;;;4935845;29;20560;-67
2021/04/22 13:12:22;;;;;;;5.33;1.70;;;13.20;83.90;;;;;;4935908;29;20216;-66
2021/04/22 13:14:49;;;;;;;7.07;1.67;;;13.10;84.10;;;;;;4936029;29;20212;-67
2021/04/22 13:17:15;;;;;;;7.53;1.50;;;13.20;85.40;;;;;;4936151;29;20233;-66
2021/04/22 13:19:43;;;;;;;7.03;1.40;;;13.30;84.80;;;;;;4936107;29;20216;-66
2021/04/22 13:22:13;;;;;;;6.17;1.40;;;13.30;81.10;;;;;;4935838;29;20217;-67
2021/04/22 13:24:41;;;;;;;3.33;1.37;;;13.20;83.20;;;;;;4935248;29;20729;-67
2021/04/22 13:27:15;;;;;;;4.77;1.93;;;13.20;84.40;;;;;;4935808;29;20229;-67
2021/04/22 13:29:48;;;;;;;7.40;2.33;;;13.30;86.60;;;;;;4935970;29;20236;-66
2021/04/22 13:32:15;;;;;;;4.30;1.60;;;13.50;84.80;;;;;;4935534;29;20683;-66
2021/04/22 13:34:43;;;;;;;7.70;1.53;;;13.60;83.70;;;;;;4935805;29;20682;-66
2021/04/22 13:37:11;;;;;;;7.33;2.17;;;13.70;83.50;;;;;;4936460;29;20229;-66
2021/04/22 13:39:41;;;;;;;5.87;1.57;;;13.80;82.50;;;;;;4935772;29;20223;-67
2021/04/22 13:42:10;;;;;;;4.10;1.53;;;13.80;83.50;;;;;;4935846;29;20216;-67
2021/04/22 13:44:39;;;;;;;3.60;1.80;;;13.80;82.10;;;;;;4935578;29;20240;-67
2021/04/22 13:47:07;;;;;;;5.77;1.50;;;13.80;80.60;;;;;;4935414;29;20726;-68
2021/04/22 13:49:36;;;;;;;8.00;2.10;;;13.70;80.30;;;;;;4935830;29;20217;-67
2021/04/22 13:52:05;;;;;;;8.27;1.80;;;13.60;82.00;;;;;;4935773;29;20212;-65
2021/04/22 13:54:33;;;;;;;5.03;1.40;;;13.50;81.80;;;;;;4935420;29;20213;-66
2021/04/22 13:57:15;;;;;;;6.70;1.53;;;13.50;83.50;;;;;;4935502;29;20235;-67
2021/04/22 13:59:42;;;;;;;14.53;2.83;;;13.60;83.60;;;;;;4935413;29;20212;-66
2021/04/22 14:02:08;;;;;;;3.70;1.37;;;13.90;83.80;;;;;;4935689;29;20267;-67
2021/04/22 14:04:35;;;;;;;6.63;2.13;;;13.90;82.40;;;;;;4935539;29;20288;-67
2021/04/22 14:07:02;;;;;;;2.63;1.50;;;13.80;82.90;;;;;;4935252;29;20224;-66
2021/04/22 14:09:31;;;;;;;3.20;1.60;;;13.70;82.90;;;;;;4935320;29;20212;-67
2021/04/22 14:12:04;;;;;;;5.70;1.40;;;13.80;81.50;;;;;;4935070;29;20205;-66
2021/04/22 14:14:32;;;;;;;6.33;1.50;;;13.70;81.60;;;;;;4935429;29;20235;-67
2021/04/22 14:16:58;;;;;;;4.87;1.60;;;13.80;80.10;;;;;;4935252;29;20232;-67
2021/04/22 14:19:26;;;;;;;3.00;1.43;;;13.90;80.30;;;;;;4935269;29;20746;-67
2021/04/22 14:21:53;;;;;;;4.23;1.27;;;14.00;80.90;;;;;;4935351;29;20253;-66
2021/04/22 14:24:20;;;;;;;4.60;1.30;;;14.00;81.00;;;;;;4935152;29;20236;-67
2021/04/22 14:26:48;;;;;;;3.50;1.50;;;13.70;83.90;;;;;;4934862;29;20288;-66
2021/04/22 14:29:15;;;;;;;3.47;1.40;;;13.40;84.20;;;;;;4935346;29;20296;-66
2021/04/22 14:31:43;;;;;;;6.17;1.60;;;13.50;85.10;;;;;;4935415;29;20209;-67
2021/04/22 14:34:10;;;;;;;3.97;1.60;;;13.50;84.70;;;;;;4935577;29;20213;-66
2021/04/22 14:36:37;;;;;;;8.20;1.60;;;13.60;85.30;;;;;;4937227;29;20284;-66
2021/04/22 14:39:05;;;;;;;5.20;1.97;;;13.90;82.90;;;;;;4938503;29;20295;-68
2021/04/22 14:41:32;;;;;;;3.40;1.70;;;14.00;82.30;;;;;;4938816;29;20205;-67
2021/04/22 14:43:58;;;;;;;3.17;1.40;;;14.00;81.90;;;;;;4938765;29;20237;-67
2021/04/22 14:46:25;;;;;;;3.47;1.80;;;14.00;82.50;;;;;;4938694;29;20233;-67
2021/04/22 14:48:52;;;;;;;6.23;1.93;;;14.00;83.40;;;;;;4938989;29;20212;-67
2021/04/22 14:51:18;;;;;;;4.70;1.47;;;13.90;82.90;;;;;;4938548;29;20572;-67
2021/04/22 14:53:44;;;;;;;4.27;1.60;;;14.00;83.80;;;;;;4938473;29;20221;-67
2021/04/22 14:56:10;;;;;;;5.10;1.47;;;14.00;82.80;;;;;;4938239;29;20233;-68
2021/04/22 14:58:37;;;;;;;5.80;1.80;;;14.00;82.20;;;;;;4938711;29;20220;-67
2021/04/22 15:01:03;;;;;;;7.80;1.93;;;13.90;81.60;;;;;;4938462;29;20216;-67
2021/04/22 15:03:31;;;;;;;3.83;1.70;;;14.00;82.20;;;;;;4938515;29;20240;-68
2021/04/22 15:05:59;;;;;;;7.13;2.50;;;14.20;81.60;;;;;;4938286;29;20231;-67
2021/04/22 15:08:26;;;;;;;10.60;1.77;;;14.00;81.60;;;;;;4938409;29;20212;-67
2021/04/22 15:10:52;;;;;;;6.87;1.97;;;14.00;81.20;;;;;;4938108;29;20731;-66
2021/04/22 15:13:19;;;;;;;5.63;1.53;;;14.00;83.00;;;;;;4938167;29;20213;-68
2021/04/22 15:15:45;;;;;;;5.80;1.70;;;14.10;81.70;;;;;;4937993;29;20229;-67
2021/04/22 15:18:11;;;;;;;4.50;1.53;;;14.10;81.50;;;;;;4938033;29;20272;-67
2021/04/22 15:20:38;;;;;;;4.97;1.57;;;14.10;81.60;;;;;;4937772;29;20220;-67
2021/04/22 15:23:06;;;;;;;5.23;1.60;;;13.90;81.80;;;;;;4937949;29;20225;-67
2021/04/22 15:25:32;;;;;;;3.83;1.97;;;13.90;82.40;;;;;;4937516;29;20236;-67
2021/04/22 15:27:59;;;;;;;4.43;1.30;;;14.00;81.60;;;;;;4937986;29;20217;-68
2021/04/22 15:30:27;;;;;;;4.23;1.50;;;14.00;81.00;;;;;;4937831;29;20213;-67
2021/04/22 15:32:55;;;;;;;5.13;1.77;;;14.00;81.70;;;;;;4937666;29;20571;-67
2021/04/22 15:35:24;;;;;;;5.80;1.70;;;14.00;80.50;;;;;;4937594;29;20237;-67
2021/04/22 15:37:57;;;;;;;4.20;1.60;;;14.00;80.50;;;;;;4937641;29;20213;-67
2021/04/22 15:40:25;;;;;;;5.47;1.73;;;14.10;80.20;;;;;;4937690;29;20216;-67
2021/04/22 15:42:54;;;;;;;7.00;1.60;;;14.20;80.70;;;;;;4937777;29;20217;-67
2021/04/22 15:45:22;;;;;;;4.53;1.83;;;13.80;82.00;;;;;;4937560;29;20233;-67
2021/04/22 15:47:50;;;;;;;3.40;1.87;;;13.60;82.00;;;;;;4937298;29;20212;-67
2021/04/22 15:50:19;;;;;;;5.50;1.83;;;13.50;82.70;;;;;;4937721;29;20279;-67
2021/04/22 15:52:45;;;;;;;3.90;1.63;;;13.50;82.10;;;;;;4937335;29;20668;-67
2021/04/22 15:55:13;;;;;;;4.03;1.80;;;13.50;82.60;;;;;;4937239;29;20209;-66
2021/04/22 15:57:40;;;;;;;2.70;1.40;;;13.70;82.70;;;;;;4937349;29;20205;-66
2021/04/22 16:00:08;;;;;;;6.33;1.60;;;13.90;82.00;;;;;;4937245;29;20580;-67
2021/04/22 16:02:35;;;;;;;4.13;2.10;;;14.10;81.30;;;;;;4937170;29;20220;-66
2021/04/22 16:05:01;;;;;;;5.00;1.80;;;14.20;80.30;;;;;;4937052;29;20244;-66
2021/04/22 16:07:27;;;;;;;5.00;1.50;;;14.10;79.30;;;;;;4955582;28;20211;-66
2021/04/22 16:09:53;;;;;;;4.37;1.57;;;14.10;80.20;;;;;;4956349;28;20216;-67
2021/04/22 16:12:20;;;;;;;6.17;1.90;;;14.10;80.40;;;;;;4969255;28;20204;-66
2021/04/22 16:14:48;;;;;;;5.60;1.90;;;14.00;80.40;;;;;;4973240;28;20230;-67
2021/04/22 16:17:14;;;;;;;4.67;1.90;;;14.00;81.00;;;;;;4955698;28;20228;-67
2021/04/22 16:19:40;;;;;;;3.47;1.60;;;14.10;80.80;;;;;;4956068;28;20212;-69
2021/04/22 16:22:07;;;;;;;5.03;1.83;;;14.10;80.90;;;;;;4955994;28;20343;-66
2021/04/22 16:24:33;;;;;;;6.93;1.73;;;14.10;81.00;;;;;;4968398;28;20302;-69
2021/04/22 16:26:59;;;;;;;3.93;1.80;;;14.00;80.50;;;;;;4955760;28;20227;-67
2021/04/22 16:29:25;;;;;;;5.57;1.60;;;13.80;81.50;;;;;;4955874;28;20212;-67
2021/04/22 16:31:52;;;;;;;4.97;1.50;;;13.70;81.50;;;;;;4955714;28;20267;-65
2021/04/22 16:34:19;;;;;;;4.03;2.00;;;13.70;81.70;;;;;;4955679;28;20667;-67
2021/04/22 16:36:45;;;;;;;6.63;2.00;;;13.80;81.80;;;;;;4955274;28;20228;-66
2021/04/22 16:39:11;;;;;;;2.87;1.57;;;13.80;81.50;;;;;;4955491;28;20231;-66
2021/04/22 16:41:37;;;;;;;4.03;1.57;;;13.90;80.90;;;;;;4955567;28;20262;-66
2021/04/22 16:44:07;;;;;;;5.23;2.13;;;13.80;81.90;;;;;;4955099;28;20234;-66
2021/04/22 16:46:33;;;;;;;5.30;2.13;;;13.80;82.60;;;;;;4955432;28;20231;-66
2021/04/22 16:49:02;;;;;;;4.63;1.70;;;13.90;82.90;;;;;;4955651;28;20204;-66
2021/04/22 16:51:28;;;;;;;6.67;2.20;;;13.90;82.10;;;;;;4955499;28;20235;-66
2021/04/22 16:53:55;;;;;;;4.40;1.93;;;13.90;81.40;;;;;;4955565;28;20312;-66
2021/04/22 16:56:23;;;;;;;4.97;1.83;;;13.90;82.00;;;;;;4955162;28;20239;-65
2021/04/22 16:58:49;;;;;;;4.23;1.90;;;13.60;82.90;;;;;;4955029;28;20219;-66
2021/04/22 17:01:15;;;;;;;3.83;1.90;;;13.70;82.80;;;;;;4970314;28;20199;-66
2021/04/22 17:03:41;;;;;;;6.87;2.43;;;13.70;82.80;;;;;;4954715;28;20587;-66
2021/04/22 17:06:08;;;;;;;4.93;1.30;;;13.80;83.00;;;;;;4954736;28;20704;-69
2021/04/22 17:08:34;;;;;;;4.70;1.57;;;13.50;82.80;;;;;;4955285;28;20682;-67
2021/04/22 17:11:01;;;;;;;4.50;1.80;;;13.60;82.40;;;;;;4955106;28;20212;-68
2021/04/22 17:13:29;;;;;;;6.50;1.83;;;13.70;82.70;;;;;;4954845;28;20212;-68
2021/04/22 17:15:55;;;;;;;3.97;1.93;;;13.70;82.70;;;;;;4954861;28;20228;-70
2021/04/22 17:18:23;;;;;;;2.67;1.50;;;13.80;82.50;;;;;;4954644;28;20216;-68
2021/04/22 17:20:49;;;;;;;6.10;2.20;;;13.60;83.30;;;;;;4955118;28;20215;-68
2021/04/22 17:23:16;;;;;;;6.87;2.03;;;13.50;83.10;;;;;;4955175;28;20208;-68
2021/04/22 17:25:43;;;;;;;9.47;2.40;;;13.60;83.70;;;;;;4954487;28;20228;-70
2021/04/22 17:28:09;;;;;;;5.13;2.23;;;13.60;84.10;;;;;;4955043;28;20212;-68
2021/04/22 17:30:35;;;;;;;7.10;2.07;;;13.40;85.50;;;;;;4954887;28;20220;-68
2021/04/22 17:33:01;;;;;;;6.27;1.63;;;13.10;85.70;;;;;;4955149;28;20207;-68
2021/04/22 17:35:28;;;;;;;7.00;1.80;;;13.20;85.50;;;;;;4954725;28;20231;-68
2021/04/22 17:37:56;;;;;;;4.93;1.53;;;13.20;85.40;;;;;;4954857;28;20283;-69
2021/04/22 17:40:27;;;;;;;4.27;1.53;;;13.30;85.30;;;;;;4954697;28;20212;-67
2021/04/22 17:42:54;;;;;;;6.40;1.60;;;13.40;85.00;;;;;;4954940;28;20219;-66
2021/04/22 17:45:20;;;;;;;3.23;1.60;;;13.30;85.20;;;;;;4954408;28;20228;-66
2021/04/22 17:47:47;;;;;;;4.53;1.83;;;12.90;86.30;;;;;;4954666;28;20658;-67
2021/04/22 17:50:15;;;;;;;4.57;1.63;;;12.70;87.10;;;;;;4954772;28;20226;-67
2021/04/22 17:52:41;;;;;;;4.37;1.97;;;12.80;87.40;;;;;;4954794;28;20223;-67
2021/04/22 17:55:10;;;;;;;3.07;1.77;;;12.80;87.50;;;;;;4954026;28;20679;-67
2021/04/22 17:57:38;;;;;;;6.57;2.10;;;12.90;87.40;;;;;;4954417;28;20210;-69
2021/04/22 18:00:07;;;;;;;7.30;1.60;;;13.00;87.00;;;;;;4959971;28;20254;-67
2021/04/22 18:02:33;;;;;;;7.90;1.90;;;13.00;86.60;;;;;;4973629;28;20218;-67
2021/04/22 18:04:59;;;;;;;4.77;2.53;;;12.90;86.20;;;;;;4969697;28;20246;-68
2021/04/22 18:07:26;;;;;;;6.67;2.00;;;12.90;85.80;;;;;;4954210;28;20238;-68
2021/04/22 18:09:52;;;;;;;4.13;1.60;;;12.90;86.20;;;;;;4955348;28;20631;-68
2021/04/22 18:12:18;;;;;;;7.90;2.30;;;12.80;86.40;;;;;;4957898;28;20200;-68
2021/04/22 18:14:45;;;;;;;5.47;1.90;;;12.80;87.10;;;;;;4957927;28;20212;-68
2021/04/22 18:17:12;;;;;;;4.67;1.80;;;12.70;88.20;;;;;;4958320;28;20224;-69
2021/04/22 18:19:38;;;;;;;4.67;1.70;;;12.50;88.50;;;;;;4958239;28;20212;-68
2021/04/22 18:22:04;;;;;;;2.80;1.83;;;12.40;89.50;;;;;;4958008;28;20215;-69
2021/04/22 18:24:30;;;;;;;6.10;1.90;;;12.40;89.80;;;;;;4957782;28;20240;-68
2021/04/22 18:26:57;;;;;;;6.20;1.80;;;12.50;89.70;;;;;;4957557;28;20725;-69
2021/04/22 18:29:23;;;;;;;4.07;1.83;;;12.40;89.80;;;;;;4958054;28;20204;-68
2021/04/22 18:31:50;;;;;;;2.23;1.70;;;12.30;90.20;;;;;;4958032;28;20208;-68
2021/04/22 18:34:17;;;;;;;3.73;1.60;;;12.30;90.30;;;;;;4957908;28;20208;-69
2021/04/22 18:36:43;;;;;;;3.50;1.50;;;12.40;90.20;;;;;;4957763;28;20258;-68
2021/04/22 18:39:11;;;;;;;4.87;1.63;;;12.30;90.10;;;;;;4957950;28;20220;-68
2021/04/22 18:41:37;;;;;;;5.10;2.13;;;12.30;90.30;;;;;;4957592;28;20208;-69
2021/04/22 18:44:04;;;;;;;5.60;1.80;;;12.20;90.40;;;;;;4957727;28;20251;-69
2021/04/22 18:46:31;;;;;;;5.80;2.20;;;12.10;90.60;;;;;;4957386;28;20228;-68
2021/04/22 18:48:59;;;;;;;2.77;1.40;;;12.00;90.80;;;;;;4957351;28;20211;-69
2021/04/22 18:51:25;;;;;;;4.40;1.73;;;11.80;91.00;;;;;;4957588;28;20216;-68
2021/04/22 18:53:52;;;;;;;7.13;2.10;;;11.70;91.40;;;;;;4957708;28;20216;-69
2021/04/22 18:56:18;;;;;;;3.27;1.53;;;11.70;91.50;;;;;;4957530;28;20228;-68
2021/04/22 18:58:44;;;;;;;4.20;1.80;;;11.70;91.80;;;;;;4957430;28;20220;-68
2021/04/22 19:01:11;;;;;;;8.10;2.23;;;11.70;91.70;;;;;;4957436;28;20208;-68
2021/04/22 19:03:37;;;;;;;4.63;1.97;;;11.50;91.80;;;;;;4957218;28;20219;-68
2021/04/22 19:06:04;;;;;;;5.53;2.07;;;11.50;92.00;;;;;;4957515;28;20228;-68
2021/04/22 19:08:31;;;;;;;4.80;1.90;;;11.50;91.90;;;;;;4957438;28;20352;-68
2021/04/22 19:10:58;;;;;;;4.80;1.63;;;11.50;92.10;;;;;;4957484;28;20211;-68
2021/04/22 19:13:24;;;;;;;3.80;2.03;;;11.50;92.20;;;;;;4957377;28;20212;-68
2021/04/22 19:15:51;;;;;;;3.57;1.43;;;11.60;92.20;;;;;;4957154;28;20272;-68
2021/04/22 19:18:17;;;;;;;7.60;2.53;;;11.50;92.30;;;;;;4956740;28;20240;-68
2021/04/22 19:20:43;;;;;;;6.23;1.97;;;11.30;92.50;;;;;;4957302;28;20215;-68
2021/04/22 19:23:10;;;;;;;4.97;2.20;;;11.20;92.80;;;;;;4956696;28;20212;-68
2021/04/22 19:25:39;;;;;;;10.70;2.30;;;11.20;92.80;;;;;;4956666;28;20722;-68
2021/04/22 19:28:05;;;;;;;5.87;2.10;;;11.20;93.00;;;;;;4957010;28;20208;-68
2021/04/22 19:30:32;;;;;;;7.40;1.87;;;11.10;93.20;;;;;;4956918;28;20268;-68
2021/04/22 19:32:59;;;;;;;4.30;2.23;;;11.10;93.10;;;;;;4956883;28;20207;-68
2021/04/22 19:35:27;;;;;;;12.13;2.53;;;11.20;93.10;;;;;;4957724;28;20235;-68
2021/04/22 19:38:05;;;;;;;3.00;1.87;;;11.10;93.20;;;;;;4956867;28;20216;-69
2021/04/22 19:40:32;;;;;;;5.77;2.10;;;11.00;93.30;;;;;;4956714;28;20215;-69
2021/04/22 19:42:58;;;;;;;6.93;1.83;;;11.00;93.50;;;;;;4956565;28;20208;-69
2021/04/22 19:45:25;;;;;;;5.67;2.37;;;11.00;93.60;;;;;;4956345;28;20244;-70
2021/04/22 19:47:51;;;;;;;3.97;1.93;;;11.10;93.50;;;;;;4956797;28;20211;-69
2021/04/22 19:50:19;;;;;;;5.50;2.07;;;11.10;93.50;;;;;;4956618;28;20216;-68
2021/04/22 19:52:46;;;;;;;6.47;2.03;;;10.80;94.00;;;;;;4956415;28;20295;-68
2021/04/22 19:55:15;;;;;;;6.80;2.07;;;10.60;94.30;;;;;;4956336;28;20208;-68
2021/04/22 19:57:43;;;;;;;5.37;2.00;;;10.70;94.30;;;;;;4956544;28;20208;-68
2021/04/22 20:00:13;;;;;;;3.40;1.90;;;10.80;94.30;;;;;;4956211;28;20230;-68
2021/04/22 20:02:39;;;;;;;3.80;1.53;;;10.80;94.40;;;;;;4956256;28;20679;-69
2021/04/22 20:05:07;;;;;;;7.83;2.20;;;10.50;94.60;;;;;;4956113;28;20267;-69
2021/04/22 20:07:33;;;;;;;3.57;1.93;;;10.50;94.80;;;;;;4956480;28;20208;-68
2021/04/22 20:10:00;;;;;;;6.20;2.20;;;10.50;94.90;;;;;;4956276;28;20208;-70
2021/04/22 20:12:26;;;;;;;7.63;2.13;;;10.50;95.00;;;;;;4955802;28;20234;-69
2021/04/22 20:14:53;;;;;;;7.13;1.97;;;10.40;95.30;;;;;;4956201;28;20227;-68
2021/04/22 20:17:20;;;;;;;4.37;2.00;;;10.30;95.50;;;;;;4956177;28;20247;-68
2021/04/22 20:19:47;;;;;;;5.90;2.17;;;10.10;95.90;;;;;;4956065;28;20204;-69
2021/04/22 20:22:13;;;;;;;6.33;2.10;;;10.00;96.40;;;;;;4955906;28;20216;-68
2021/04/22 20:24:40;;;;;;;6.93;2.10;;;10.00;96.50;;;;;;4955752;28;20257;-69
2021/04/22 20:27:06;;;;;;;8.17;1.83;;;9.80;97.50;;;;;;4955680;28;20232;-68